sensor_id;sensor_type;location;lat;lon;timestamp;P1;durP1;ratioP1;P2;durP2;ratioP2
8540;SDS011;4308;51.294;6.590;2024-01-06T00:00:04;29.23;;;21.50;;
8540;SDS011;4308;51.294;6.590;2024-01-06T00:02:32;28.80;;;20.13;;
8540;SDS011;4308;51.294;6.590;2024-01-06T00:05:00;27.30;;;21.27;;
8540;SDS011;4308;51.294;6.590;2024-01-06T00:07:27;29.00;;;21.43;;
8540;SDS011;4308;51.294;6.590;2024-01-06T00:09:55;32.07;;;21.53;;
8540;SDS011;4308;51.294;6.590;2024-01-06T00:12:23;34.80;;;22.60;;
8540;SDS011;4308;51.294;6.590;2024-01-06T00:14:50;32.33;;;21.30;;
8540;SDS011;4308;51.294;6.590;2024-01-06T00:17:18;29.03;;;21.17;;
8540;SDS011;4308;51.294;6.590;2024-01-06T00:19:45;31.47;;;21.57;;
8540;SDS011;4308;51.294;6.590;2024-01-06T00:22:13;28.73;;;21.77;;
8540;SDS011;4308;51.294;6.590;2024-01-06T00:24:41;32.07;;;22.07;;
8540;SDS011;4308;51.294;6.590;2024-01-06T00:27:09;32.00;;;23.03;;
8540;SDS011;4308;51.294;6.590;2024-01-06T00:29:36;31.67;;;22.50;;
8540;SDS011;4308;51.294;6.590;2024-01-06T00:32:04;28.90;;;21.37;;
8540;SDS011;4308;51.294;6.590;2024-01-06T00:34:32;29.83;;;22.03;;
8540;SDS011;4308;51.294;6.590;2024-01-06T00:37:00;30.50;;;21.77;;
8540;SDS011;4308;51.294;6.590;2024-01-06T00:39:28;32.27;;;23.03;;
8540;SDS011;4308;51.294;6.590;2024-01-06T00:41:55;32.70;;;22.63;;
8540;SDS011;4308;51.294;6.590;2024-01-06T00:44:23;31.53;;;21.73;;
8540;SDS011;4308;51.294;6.590;2024-01-06T00:46:51;31.40;;;22.17;;
8540;SDS011;4308;51.294;6.590;2024-01-06T00:49:18;30.77;;;21.93;;
8540;SDS011;4308;51.294;6.590;2024-01-06T00:51:46;29.53;;;21.47;;
8540;SDS011;4308;51.294;6.590;2024-01-06T00:54:14;34.43;;;22.97;;
8540;SDS011;4308;51.294;6.590;2024-01-06T00:56:41;26.27;;;20.97;;
8540;SDS011;4308;51.294;6.590;2024-01-06T00:59:09;28.50;;;21.43;;
8540;SDS011;4308;51.294;6.590;2024-01-06T01:01:36;31.77;;;22.53;;
8540;SDS011;4308;51.294;6.590;2024-01-06T01:04:04;29.97;;;22.40;;
8540;SDS011;4308;51.294;6.590;2024-01-06T01:06:32;31.53;;;21.93;;
8540;SDS011;4308;51.294;6.590;2024-01-06T01:08:59;31.57;;;23.07;;
8540;SDS011;4308;51.294;6.590;2024-01-06T01:11:27;31.10;;;22.43;;
8540;SDS011;4308;51.294;6.590;2024-01-06T01:13:55;29.53;;;21.50;;
8540;SDS011;4308;51.294;6.590;2024-01-06T01:16:23;33.07;;;23.97;;
8540;SDS011;4308;51.294;6.590;2024-01-06T01:18:50;33.87;;;23.00;;
8540;SDS011;4308;51.294;6.590;2024-01-06T01:21:18;29.43;;;22.23;;
8540;SDS011;4308;51.294;6.590;2024-01-06T01:23:46;32.13;;;23.30;;
8540;SDS011;4308;51.294;6.590;2024-01-06T01:26:13;32.57;;;22.47;;
8540;SDS011;4308;51.294;6.590;2024-01-06T01:28:41;31.03;;;22.17;;
8540;SDS011;4308;51.294;6.590;2024-01-06T01:31:09;32.93;;;23.13;;
8540;SDS011;4308;51.294;6.590;2024-01-06T01:33:37;35.90;;;24.17;;
8540;SDS011;4308;51.294;6.590;2024-01-06T01:36:05;32.73;;;22.97;;
8540;SDS011;4308;51.294;6.590;2024-01-06T01:38:32;35.07;;;23.60;;
8540;SDS011;4308;51.294;6.590;2024-01-06T01:41:00;35.10;;;23.60;;
8540;SDS011;4308;51.294;6.590;2024-01-06T01:43:28;33.70;;;23.73;;
8540;SDS011;4308;51.294;6.590;2024-01-06T01:45:55;40.33;;;24.00;;
8540;SDS011;4308;51.294;6.590;2024-01-06T01:48:27;37.37;;;25.23;;
8540;SDS011;4308;51.294;6.590;2024-01-06T01:50:55;41.40;;;26.63;;
8540;SDS011;4308;51.294;6.590;2024-01-06T01:53:22;42.50;;;26.30;;
8540;SDS011;4308;51.294;6.590;2024-01-06T01:55:50;41.17;;;26.20;;
8540;SDS011;4308;51.294;6.590;2024-01-06T01:58:18;39.97;;;26.50;;
8540;SDS011;4308;51.294;6.590;2024-01-06T02:00:46;47.33;;;28.93;;
8540;SDS011;4308;51.294;6.590;2024-01-06T02:03:13;49.50;;;28.73;;
8540;SDS011;4308;51.294;6.590;2024-01-06T02:05:41;50.90;;;28.33;;
8540;SDS011;4308;51.294;6.590;2024-01-06T02:08:09;44.97;;;29.00;;
8540;SDS011;4308;51.294;6.590;2024-01-06T02:10:37;53.83;;;29.47;;
8540;SDS011;4308;51.294;6.590;2024-01-06T02:13:08;55.90;;;31.03;;
8540;SDS011;4308;51.294;6.590;2024-01-06T02:15:36;50.10;;;29.37;;
8540;SDS011;4308;51.294;6.590;2024-01-06T02:18:04;44.67;;;28.07;;
8540;SDS011;4308;51.294;6.590;2024-01-06T02:20:33;43.07;;;26.83;;
8540;SDS011;4308;51.294;6.590;2024-01-06T02:23:01;41.47;;;26.67;;
8540;SDS011;4308;51.294;6.590;2024-01-06T02:25:28;42.67;;;25.57;;
8540;SDS011;4308;51.294;6.590;2024-01-06T02:27:56;42.63;;;26.87;;
8540;SDS011;4308;51.294;6.590;2024-01-06T02:30:27;39.47;;;26.37;;
8540;SDS011;4308;51.294;6.590;2024-01-06T02:32:55;42.40;;;26.60;;
8540;SDS011;4308;51.294;6.590;2024-01-06T02:35:22;39.80;;;25.10;;
8540;SDS011;4308;51.294;6.590;2024-01-06T02:37:50;41.87;;;26.40;;
8540;SDS011;4308;51.294;6.590;2024-01-06T02:40:17;47.93;;;27.67;;
8540;SDS011;4308;51.294;6.590;2024-01-06T02:42:45;38.87;;;24.63;;
8540;SDS011;4308;51.294;6.590;2024-01-06T02:45:13;40.53;;;26.13;;
8540;SDS011;4308;51.294;6.590;2024-01-06T02:47:41;38.30;;;24.73;;
8540;SDS011;4308;51.294;6.590;2024-01-06T02:50:08;39.57;;;25.73;;
8540;SDS011;4308;51.294;6.590;2024-01-06T02:52:36;43.00;;;25.97;;
8540;SDS011;4308;51.294;6.590;2024-01-06T02:55:05;43.37;;;25.97;;
8540;SDS011;4308;51.294;6.590;2024-01-06T02:57:33;34.97;;;23.53;;
8540;SDS011;4308;51.294;6.590;2024-01-06T03:00:00;39.20;;;24.87;;
8540;SDS011;4308;51.294;6.590;2024-01-06T03:02:28;37.30;;;24.17;;
8540;SDS011;4308;51.294;6.590;2024-01-06T03:04:55;36.07;;;22.60;;
8540;SDS011;4308;51.294;6.590;2024-01-06T03:07:23;37.80;;;22.30;;
8540;SDS011;4308;51.294;6.590;2024-01-06T03:09:51;41.47;;;26.03;;
8540;SDS011;4308;51.294;6.590;2024-01-06T03:12:18;38.63;;;24.40;;
8540;SDS011;4308;51.294;6.590;2024-01-06T03:14:47;37.23;;;24.43;;
8540;SDS011;4308;51.294;6.590;2024-01-06T03:17:14;39.07;;;25.10;;
8540;SDS011;4308;51.294;6.590;2024-01-06T03:19:42;40.97;;;25.63;;
8540;SDS011;4308;51.294;6.590;2024-01-06T03:22:10;41.30;;;25.10;;
8540;SDS011;4308;51.294;6.590;2024-01-06T03:24:37;36.63;;;22.03;;
8540;SDS011;4308;51.294;6.590;2024-01-06T03:27:05;30.07;;;19.70;;
8540;SDS011;4308;51.294;6.590;2024-01-06T03:29:33;25.60;;;15.13;;
8540;SDS011;4308;51.294;6.590;2024-01-06T03:32:00;24.33;;;15.17;;
8540;SDS011;4308;51.294;6.590;2024-01-06T03:34:28;25.43;;;15.23;;
8540;SDS011;4308;51.294;6.590;2024-01-06T03:36:56;23.00;;;13.77;;
8540;SDS011;4308;51.294;6.590;2024-01-06T03:39:23;22.57;;;14.00;;
8540;SDS011;4308;51.294;6.590;2024-01-06T03:41:51;26.07;;;16.87;;
8540;SDS011;4308;51.294;6.590;2024-01-06T03:44:19;28.43;;;17.20;;
8540;SDS011;4308;51.294;6.590;2024-01-06T03:46:46;22.07;;;14.20;;
8540;SDS011;4308;51.294;6.590;2024-01-06T03:49:14;20.93;;;12.87;;
8540;SDS011;4308;51.294;6.590;2024-01-06T03:51:42;14.90;;;9.07;;
8540;SDS011;4308;51.294;6.590;2024-01-06T03:54:09;15.00;;;8.70;;
8540;SDS011;4308;51.294;6.590;2024-01-06T03:56:37;17.13;;;11.17;;
8540;SDS011;4308;51.294;6.590;2024-01-06T03:59:05;13.50;;;9.97;;
8540;SDS011;4308;51.294;6.590;2024-01-06T04:01:32;16.97;;;10.77;;
8540;SDS011;4308;51.294;6.590;2024-01-06T04:04:00;15.13;;;10.87;;
8540;SDS011;4308;51.294;6.590;2024-01-06T04:06:29;17.97;;;11.43;;
8540;SDS011;4308;51.294;6.590;2024-01-06T04:08:57;15.97;;;9.53;;
8540;SDS011;4308;51.294;6.590;2024-01-06T04:11:24;15.07;;;10.53;;
8540;SDS011;4308;51.294;6.590;2024-01-06T04:13:52;19.07;;;12.33;;
8540;SDS011;4308;51.294;6.590;2024-01-06T04:16:19;19.87;;;12.80;;
8540;SDS011;4308;51.294;6.590;2024-01-06T04:18:47;17.87;;;11.50;;
8540;SDS011;4308;51.294;6.590;2024-01-06T04:21:15;17.80;;;11.67;;
8540;SDS011;4308;51.294;6.590;2024-01-06T04:23:43;17.60;;;11.53;;
8540;SDS011;4308;51.294;6.590;2024-01-06T04:26:10;19.17;;;12.70;;
8540;SDS011;4308;51.294;6.590;2024-01-06T04:28:38;17.70;;;10.97;;
8540;SDS011;4308;51.294;6.590;2024-01-06T04:31:06;18.40;;;11.80;;
8540;SDS011;4308;51.294;6.590;2024-01-06T04:33:37;18.10;;;11.53;;
8540;SDS011;4308;51.294;6.590;2024-01-06T04:36:06;19.40;;;12.40;;
8540;SDS011;4308;51.294;6.590;2024-01-06T04:38:34;18.10;;;12.37;;
8540;SDS011;4308;51.294;6.590;2024-01-06T04:41:02;18.67;;;12.30;;
8540;SDS011;4308;51.294;6.590;2024-01-06T04:43:33;18.27;;;11.40;;
8540;SDS011;4308;51.294;6.590;2024-01-06T04:46:00;21.13;;;12.60;;
8540;SDS011;4308;51.294;6.590;2024-01-06T04:48:28;17.30;;;11.63;;
8540;SDS011;4308;51.294;6.590;2024-01-06T04:50:56;19.47;;;12.77;;
8540;SDS011;4308;51.294;6.590;2024-01-06T04:53:23;16.90;;;10.57;;
8540;SDS011;4308;51.294;6.590;2024-01-06T04:55:51;18.00;;;13.00;;
8540;SDS011;4308;51.294;6.590;2024-01-06T04:58:18;18.03;;;11.87;;
8540;SDS011;4308;51.294;6.590;2024-01-06T05:00:46;20.97;;;13.07;;
8540;SDS011;4308;51.294;6.590;2024-01-06T05:03:14;19.80;;;13.93;;
8540;SDS011;4308;51.294;6.590;2024-01-06T05:05:42;19.13;;;12.67;;
8540;SDS011;4308;51.294;6.590;2024-01-06T05:08:09;19.10;;;12.27;;
8540;SDS011;4308;51.294;6.590;2024-01-06T05:10:37;20.20;;;13.13;;
8540;SDS011;4308;51.294;6.590;2024-01-06T05:13:05;20.03;;;12.87;;
8540;SDS011;4308;51.294;6.590;2024-01-06T05:15:32;19.20;;;13.00;;
8540;SDS011;4308;51.294;6.590;2024-01-06T05:18:00;19.27;;;12.03;;
8540;SDS011;4308;51.294;6.590;2024-01-06T05:20:28;21.00;;;12.77;;
8540;SDS011;4308;51.294;6.590;2024-01-06T05:22:55;19.37;;;12.90;;
8540;SDS011;4308;51.294;6.590;2024-01-06T05:25:23;19.60;;;13.57;;
8540;SDS011;4308;51.294;6.590;2024-01-06T05:27:51;22.10;;;13.77;;
8540;SDS011;4308;51.294;6.590;2024-01-06T05:30:18;19.13;;;13.57;;
8540;SDS011;4308;51.294;6.590;2024-01-06T05:32:46;19.93;;;13.60;;
8540;SDS011;4308;51.294;6.590;2024-01-06T05:35:15;19.13;;;13.07;;
8540;SDS011;4308;51.294;6.590;2024-01-06T05:37:43;19.63;;;12.93;;
8540;SDS011;4308;51.294;6.590;2024-01-06T05:40:10;17.23;;;11.77;;
8540;SDS011;4308;51.294;6.590;2024-01-06T05:42:38;20.37;;;13.00;;
8540;SDS011;4308;51.294;6.590;2024-01-06T05:45:06;20.17;;;12.70;;
8540;SDS011;4308;51.294;6.590;2024-01-06T05:47:34;21.40;;;12.00;;
8540;SDS011;4308;51.294;6.590;2024-01-06T05:50:01;17.97;;;13.10;;
8540;SDS011;4308;51.294;6.590;2024-01-06T05:52:29;18.77;;;12.23;;
8540;SDS011;4308;51.294;6.590;2024-01-06T05:54:57;17.33;;;11.53;;
8540;SDS011;4308;51.294;6.590;2024-01-06T05:57:25;17.60;;;12.57;;
8540;SDS011;4308;51.294;6.590;2024-01-06T05:59:52;15.50;;;10.00;;
8540;SDS011;4308;51.294;6.590;2024-01-06T06:02:20;17.23;;;12.03;;
8540;SDS011;4308;51.294;6.590;2024-01-06T06:04:48;17.83;;;11.70;;
8540;SDS011;4308;51.294;6.590;2024-01-06T06:07:15;16.40;;;11.00;;
8540;SDS011;4308;51.294;6.590;2024-01-06T06:09:43;14.20;;;8.97;;
8540;SDS011;4308;51.294;6.590;2024-01-06T06:12:11;15.17;;;9.33;;
8540;SDS011;4308;51.294;6.590;2024-01-06T06:14:38;14.43;;;9.37;;
8540;SDS011;4308;51.294;6.590;2024-01-06T06:17:06;16.43;;;11.13;;
8540;SDS011;4308;51.294;6.590;2024-01-06T06:19:34;16.17;;;9.90;;
8540;SDS011;4308;51.294;6.590;2024-01-06T06:22:02;18.60;;;12.07;;
8540;SDS011;4308;51.294;6.590;2024-01-06T06:24:30;16.73;;;9.97;;
8540;SDS011;4308;51.294;6.590;2024-01-06T06:26:58;18.77;;;11.57;;
8540;SDS011;4308;51.294;6.590;2024-01-06T06:29:25;18.37;;;10.53;;
8540;SDS011;4308;51.294;6.590;2024-01-06T06:31:53;22.40;;;12.23;;
8540;SDS011;4308;51.294;6.590;2024-01-06T06:34:20;20.80;;;12.80;;
8540;SDS011;4308;51.294;6.590;2024-01-06T06:36:48;22.23;;;13.23;;
8540;SDS011;4308;51.294;6.590;2024-01-06T06:39:16;21.80;;;11.70;;
8540;SDS011;4308;51.294;6.590;2024-01-06T06:41:44;19.03;;;12.00;;
8540;SDS011;4308;51.294;6.590;2024-01-06T06:44:11;23.17;;;13.53;;
8540;SDS011;4308;51.294;6.590;2024-01-06T06:46:39;19.80;;;11.57;;
8540;SDS011;4308;51.294;6.590;2024-01-06T06:49:07;21.30;;;12.70;;
8540;SDS011;4308;51.294;6.590;2024-01-06T06:51:34;22.60;;;14.27;;
8540;SDS011;4308;51.294;6.590;2024-01-06T06:54:02;20.83;;;12.23;;
8540;SDS011;4308;51.294;6.590;2024-01-06T06:56:30;22.53;;;13.03;;
8540;SDS011;4308;51.294;6.590;2024-01-06T06:58:57;25.00;;;15.10;;
8540;SDS011;4308;51.294;6.590;2024-01-06T07:01:25;22.77;;;14.13;;
8540;SDS011;4308;51.294;6.590;2024-01-06T07:03:53;25.23;;;15.40;;
8540;SDS011;4308;51.294;6.590;2024-01-06T07:06:20;29.20;;;16.37;;
8540;SDS011;4308;51.294;6.590;2024-01-06T07:08:48;24.20;;;15.07;;
8540;SDS011;4308;51.294;6.590;2024-01-06T07:11:16;28.30;;;16.10;;
8540;SDS011;4308;51.294;6.590;2024-01-06T07:13:43;24.83;;;14.93;;
8540;SDS011;4308;51.294;6.590;2024-01-06T07:16:11;22.37;;;13.60;;
8540;SDS011;4308;51.294;6.590;2024-01-06T07:18:45;23.53;;;15.30;;
8540;SDS011;4308;51.294;6.590;2024-01-06T07:21:13;22.13;;;13.37;;
8540;SDS011;4308;51.294;6.590;2024-01-06T07:23:41;24.57;;;13.63;;
8540;SDS011;4308;51.294;6.590;2024-01-06T07:26:09;21.67;;;13.33;;
8540;SDS011;4308;51.294;6.590;2024-01-06T07:28:37;20.37;;;12.57;;
8540;SDS011;4308;51.294;6.590;2024-01-06T07:31:04;16.93;;;10.27;;
8540;SDS011;4308;51.294;6.590;2024-01-06T07:33:32;19.63;;;12.03;;
8540;SDS011;4308;51.294;6.590;2024-01-06T07:36:00;20.73;;;13.03;;
8540;SDS011;4308;51.294;6.590;2024-01-06T07:38:28;22.47;;;13.80;;
8540;SDS011;4308;51.294;6.590;2024-01-06T07:40:55;23.70;;;13.43;;
8540;SDS011;4308;51.294;6.590;2024-01-06T07:43:23;24.50;;;14.10;;
8540;SDS011;4308;51.294;6.590;2024-01-06T07:45:51;24.17;;;12.60;;
8540;SDS011;4308;51.294;6.590;2024-01-06T07:48:19;23.37;;;13.83;;
8540;SDS011;4308;51.294;6.590;2024-01-06T07:50:47;25.40;;;13.43;;
8540;SDS011;4308;51.294;6.590;2024-01-06T07:53:15;28.03;;;14.93;;
8540;SDS011;4308;51.294;6.590;2024-01-06T07:55:42;25.83;;;15.30;;
8540;SDS011;4308;51.294;6.590;2024-01-06T07:58:10;27.23;;;15.30;;
8540;SDS011;4308;51.294;6.590;2024-01-06T08:00:37;22.20;;;13.17;;
8540;SDS011;4308;51.294;6.590;2024-01-06T08:03:05;27.50;;;15.50;;
8540;SDS011;4308;51.294;6.590;2024-01-06T08:05:33;30.27;;;15.83;;
8540;SDS011;4308;51.294;6.590;2024-01-06T08:08:01;23.50;;;12.70;;
8540;SDS011;4308;51.294;6.590;2024-01-06T08:10:28;29.50;;;15.73;;
8540;SDS011;4308;51.294;6.590;2024-01-06T08:12:56;31.50;;;15.03;;
8540;SDS011;4308;51.294;6.590;2024-01-06T08:15:23;27.13;;;14.90;;
8540;SDS011;4308;51.294;6.590;2024-01-06T08:17:51;25.13;;;14.50;;
8540;SDS011;4308;51.294;6.590;2024-01-06T08:20:19;23.77;;;13.67;;
8540;SDS011;4308;51.294;6.590;2024-01-06T08:22:46;26.20;;;13.17;;
8540;SDS011;4308;51.294;6.590;2024-01-06T08:25:14;20.43;;;11.03;;
8540;SDS011;4308;51.294;6.590;2024-01-06T08:27:42;27.37;;;13.57;;
8540;SDS011;4308;51.294;6.590;2024-01-06T08:30:09;30.37;;;15.63;;
8540;SDS011;4308;51.294;6.590;2024-01-06T08:32:37;24.70;;;13.80;;
8540;SDS011;4308;51.294;6.590;2024-01-06T08:35:05;26.97;;;14.57;;
8540;SDS011;4308;51.294;6.590;2024-01-06T08:37:33;29.10;;;15.43;;
8540;SDS011;4308;51.294;6.590;2024-01-06T08:40:00;29.60;;;16.23;;
8540;SDS011;4308;51.294;6.590;2024-01-06T08:42:28;25.30;;;14.53;;
8540;SDS011;4308;51.294;6.590;2024-01-06T08:44:56;27.73;;;15.30;;
8540;SDS011;4308;51.294;6.590;2024-01-06T08:47:23;29.30;;;16.00;;
8540;SDS011;4308;51.294;6.590;2024-01-06T08:49:51;30.20;;;16.90;;
8540;SDS011;4308;51.294;6.590;2024-01-06T08:52:19;26.20;;;15.00;;
8540;SDS011;4308;51.294;6.590;2024-01-06T08:54:46;29.77;;;16.27;;
8540;SDS011;4308;51.294;6.590;2024-01-06T08:57:14;30.57;;;14.87;;
8540;SDS011;4308;51.294;6.590;2024-01-06T08:59:42;32.80;;;15.27;;
8540;SDS011;4308;51.294;6.590;2024-01-06T09:02:09;27.67;;;14.93;;
8540;SDS011;4308;51.294;6.590;2024-01-06T09:04:37;27.17;;;15.67;;
8540;SDS011;4308;51.294;6.590;2024-01-06T09:07:05;29.03;;;14.70;;
8540;SDS011;4308;51.294;6.590;2024-01-06T09:09:32;25.43;;;15.17;;
8540;SDS011;4308;51.294;6.590;2024-01-06T09:12:00;40.13;;;18.93;;
8540;SDS011;4308;51.294;6.590;2024-01-06T09:14:28;55.83;;;21.47;;
8540;SDS011;4308;51.294;6.590;2024-01-06T09:16:55;50.90;;;21.10;;
8540;SDS011;4308;51.294;6.590;2024-01-06T09:19:23;42.27;;;19.60;;
8540;SDS011;4308;51.294;6.590;2024-01-06T09:21:51;47.10;;;20.80;;
8540;SDS011;4308;51.294;6.590;2024-01-06T09:24:19;46.83;;;21.57;;
8540;SDS011;4308;51.294;6.590;2024-01-06T09:26:46;33.63;;;16.30;;
8540;SDS011;4308;51.294;6.590;2024-01-06T09:29:14;48.03;;;20.47;;
8540;SDS011;4308;51.294;6.590;2024-01-06T09:31:42;32.30;;;15.60;;
8540;SDS011;4308;51.294;6.590;2024-01-06T09:34:13;30.37;;;14.60;;
8540;SDS011;4308;51.294;6.590;2024-01-06T09:36:41;39.20;;;19.03;;
8540;SDS011;4308;51.294;6.590;2024-01-06T09:39:08;36.57;;;17.73;;
8540;SDS011;4308;51.294;6.590;2024-01-06T09:41:36;45.40;;;20.43;;
8540;SDS011;4308;51.294;6.590;2024-01-06T09:44:04;37.37;;;17.10;;
8540;SDS011;4308;51.294;6.590;2024-01-06T09:46:31;45.70;;;20.07;;
8540;SDS011;4308;51.294;6.590;2024-01-06T09:48:59;54.23;;;22.80;;
8540;SDS011;4308;51.294;6.590;2024-01-06T09:51:27;45.77;;;20.53;;
8540;SDS011;4308;51.294;6.590;2024-01-06T09:53:59;29.30;;;14.93;;
8540;SDS011;4308;51.294;6.590;2024-01-06T09:56:28;65.43;;;24.10;;
8540;SDS011;4308;51.294;6.590;2024-01-06T09:58:56;55.03;;;24.13;;
8540;SDS011;4308;51.294;6.590;2024-01-06T10:01:24;64.10;;;24.27;;
8540;SDS011;4308;51.294;6.590;2024-01-06T10:03:52;71.73;;;26.03;;
8540;SDS011;4308;51.294;6.590;2024-01-06T10:06:20;50.67;;;20.63;;
8540;SDS011;4308;51.294;6.590;2024-01-06T10:08:48;62.17;;;24.03;;
8540;SDS011;4308;51.294;6.590;2024-01-06T10:11:16;61.37;;;24.30;;
8540;SDS011;4308;51.294;6.590;2024-01-06T10:13:44;70.90;;;25.03;;
8540;SDS011;4308;51.294;6.590;2024-01-06T10:16:11;46.97;;;22.00;;
8540;SDS011;4308;51.294;6.590;2024-01-06T10:18:39;58.73;;;22.67;;
8540;SDS011;4308;51.294;6.590;2024-01-06T10:21:07;58.60;;;23.77;;
8540;SDS011;4308;51.294;6.590;2024-01-06T10:23:34;64.23;;;25.83;;
8540;SDS011;4308;51.294;6.590;2024-01-06T10:26:02;62.67;;;24.17;;
8540;SDS011;4308;51.294;6.590;2024-01-06T10:28:31;48.60;;;20.37;;
8540;SDS011;4308;51.294;6.590;2024-01-06T10:30:59;42.10;;;18.93;;
8540;SDS011;4308;51.294;6.590;2024-01-06T10:33:27;56.17;;;22.60;;
8540;SDS011;4308;51.294;6.590;2024-01-06T10:35:55;57.27;;;22.73;;
8540;SDS011;4308;51.294;6.590;2024-01-06T10:38:23;63.13;;;26.23;;
8540;SDS011;4308;51.294;6.590;2024-01-06T10:43:27;46.23;;;19.70;;
8540;SDS011;4308;51.294;6.590;2024-01-06T10:45:57;56.73;;;23.83;;
8540;SDS011;4308;51.294;6.590;2024-01-06T10:48:26;47.30;;;19.90;;
8540;SDS011;4308;51.294;6.590;2024-01-06T10:50:57;66.63;;;26.30;;
8540;SDS011;4308;51.294;6.590;2024-01-06T10:53:29;42.23;;;18.43;;
8540;SDS011;4308;51.294;6.590;2024-01-06T10:55:57;43.27;;;18.83;;
8540;SDS011;4308;51.294;6.590;2024-01-06T10:58:24;59.47;;;24.57;;
8540;SDS011;4308;51.294;6.590;2024-01-06T11:00:52;54.30;;;19.03;;
8540;SDS011;4308;51.294;6.590;2024-01-06T11:03:20;57.33;;;24.00;;
8540;SDS011;4308;51.294;6.590;2024-01-06T11:05:48;51.60;;;20.67;;
8540;SDS011;4308;51.294;6.590;2024-01-06T11:08:18;56.70;;;24.23;;
8540;SDS011;4308;51.294;6.590;2024-01-06T11:10:46;44.83;;;19.67;;
8540;SDS011;4308;51.294;6.590;2024-01-06T11:13:15;52.57;;;21.30;;
8540;SDS011;4308;51.294;6.590;2024-01-06T11:15:44;58.97;;;21.93;;
8540;SDS011;4308;51.294;6.590;2024-01-06T11:18:31;58.80;;;25.33;;
8540;SDS011;4308;51.294;6.590;2024-01-06T11:23:39;47.07;;;21.00;;
8540;SDS011;4308;51.294;6.590;2024-01-06T11:26:08;58.20;;;24.57;;
8540;SDS011;4308;51.294;6.590;2024-01-06T11:28:43;46.83;;;21.33;;
8540;SDS011;4308;51.294;6.590;2024-01-06T11:31:11;38.73;;;18.27;;
8540;SDS011;4308;51.294;6.590;2024-01-06T11:33:45;38.13;;;19.27;;
8540;SDS011;4308;51.294;6.590;2024-01-06T11:36:14;50.40;;;21.10;;
8540;SDS011;4308;51.294;6.590;2024-01-06T11:38:42;50.30;;;23.70;;
8540;SDS011;4308;51.294;6.590;2024-01-06T11:41:10;45.07;;;22.00;;
8540;SDS011;4308;51.294;6.590;2024-01-06T11:43:37;49.27;;;23.33;;
8540;SDS011;4308;51.294;6.590;2024-01-06T11:46:06;43.30;;;21.67;;
8540;SDS011;4308;51.294;6.590;2024-01-06T11:48:37;57.00;;;25.47;;
8540;SDS011;4308;51.294;6.590;2024-01-06T11:51:04;52.63;;;22.00;;
8540;SDS011;4308;51.294;6.590;2024-01-06T11:53:32;61.73;;;29.10;;
8540;SDS011;4308;51.294;6.590;2024-01-06T11:56:00;59.47;;;27.40;;
8540;SDS011;4308;51.294;6.590;2024-01-06T11:58:27;64.67;;;29.43;;
8540;SDS011;4308;51.294;6.590;2024-01-06T12:00:55;53.00;;;26.10;;
8540;SDS011;4308;51.294;6.590;2024-01-06T12:03:23;53.13;;;27.33;;
8540;SDS011;4308;51.294;6.590;2024-01-06T12:06:00;73.00;;;30.87;;
8540;SDS011;4308;51.294;6.590;2024-01-06T12:08:28;63.97;;;30.40;;
8540;SDS011;4308;51.294;6.590;2024-01-06T12:11:02;62.40;;;30.33;;
8540;SDS011;4308;51.294;6.590;2024-01-06T12:13:30;49.83;;;22.93;;
8540;SDS011;4308;51.294;6.590;2024-01-06T12:15:58;52.43;;;25.90;;
8540;SDS011;4308;51.294;6.590;2024-01-06T12:18:25;62.70;;;25.57;;
8540;SDS011;4308;51.294;6.590;2024-01-06T12:20:53;50.07;;;24.37;;
8540;SDS011;4308;51.294;6.590;2024-01-06T12:23:25;49.40;;;22.93;;
8540;SDS011;4308;51.294;6.590;2024-01-06T12:25:53;47.97;;;21.53;;
8540;SDS011;4308;51.294;6.590;2024-01-06T12:28:20;44.87;;;22.10;;
8540;SDS011;4308;51.294;6.590;2024-01-06T12:30:48;62.47;;;27.47;;
8540;SDS011;4308;51.294;6.590;2024-01-06T12:33:16;61.40;;;27.43;;
8540;SDS011;4308;51.294;6.590;2024-01-06T12:35:43;64.00;;;27.23;;
8540;SDS011;4308;51.294;6.590;2024-01-06T12:38:11;39.43;;;17.50;;
8540;SDS011;4308;51.294;6.590;2024-01-06T12:40:39;37.40;;;16.73;;
8540;SDS011;4308;51.294;6.590;2024-01-06T12:43:06;32.67;;;16.40;;
8540;SDS011;4308;51.294;6.590;2024-01-06T12:45:34;45.17;;;23.70;;
8540;SDS011;4308;51.294;6.590;2024-01-06T12:48:02;51.50;;;26.23;;
8540;SDS011;4308;51.294;6.590;2024-01-06T12:50:30;45.47;;;25.40;;
8540;SDS011;4308;51.294;6.590;2024-01-06T12:52:57;44.30;;;22.67;;
8540;SDS011;4308;51.294;6.590;2024-01-06T12:55:25;49.80;;;25.33;;
8540;SDS011;4308;51.294;6.590;2024-01-06T12:57:52;51.97;;;23.77;;
8540;SDS011;4308;51.294;6.590;2024-01-06T13:00:20;54.43;;;25.63;;
8540;SDS011;4308;51.294;6.590;2024-01-06T13:02:48;44.07;;;23.47;;
8540;SDS011;4308;51.294;6.590;2024-01-06T13:05:16;45.33;;;22.10;;
8540;SDS011;4308;51.294;6.590;2024-01-06T13:07:43;46.07;;;24.30;;
8540;SDS011;4308;51.294;6.590;2024-01-06T13:10:13;41.40;;;21.20;;
8540;SDS011;4308;51.294;6.590;2024-01-06T13:12:41;45.37;;;23.40;;
8540;SDS011;4308;51.294;6.590;2024-01-06T13:15:09;32.03;;;18.40;;
8540;SDS011;4308;51.294;6.590;2024-01-06T13:17:37;40.80;;;21.50;;
8540;SDS011;4308;51.294;6.590;2024-01-06T13:20:05;35.30;;;18.47;;
8540;SDS011;4308;51.294;6.590;2024-01-06T13:22:32;29.73;;;16.47;;
8540;SDS011;4308;51.294;6.590;2024-01-06T13:25:00;39.03;;;18.53;;
8540;SDS011;4308;51.294;6.590;2024-01-06T13:27:28;39.33;;;19.60;;
8540;SDS011;4308;51.294;6.590;2024-01-06T13:29:55;39.87;;;20.83;;
8540;SDS011;4308;51.294;6.590;2024-01-06T13:32:23;42.93;;;21.93;;
8540;SDS011;4308;51.294;6.590;2024-01-06T13:34:51;35.77;;;18.80;;
8540;SDS011;4308;51.294;6.590;2024-01-06T13:37:18;36.63;;;19.10;;
8540;SDS011;4308;51.294;6.590;2024-01-06T13:39:48;38.37;;;19.47;;
8540;SDS011;4308;51.294;6.590;2024-01-06T13:42:15;43.43;;;20.87;;
8540;SDS011;4308;51.294;6.590;2024-01-06T13:44:45;41.77;;;22.17;;
8540;SDS011;4308;51.294;6.590;2024-01-06T13:47:13;42.60;;;19.63;;
8540;SDS011;4308;51.294;6.590;2024-01-06T13:49:40;53.23;;;26.73;;
8540;SDS011;4308;51.294;6.590;2024-01-06T13:52:08;44.83;;;21.37;;
8540;SDS011;4308;51.294;6.590;2024-01-06T13:54:36;39.07;;;18.77;;
8540;SDS011;4308;51.294;6.590;2024-01-06T13:57:03;38.37;;;19.00;;
8540;SDS011;4308;51.294;6.590;2024-01-06T13:59:31;32.27;;;18.17;;
8540;SDS011;4308;51.294;6.590;2024-01-06T14:01:59;39.47;;;19.93;;
8540;SDS011;4308;51.294;6.590;2024-01-06T14:04:26;38.13;;;18.27;;
8540;SDS011;4308;51.294;6.590;2024-01-06T14:06:54;34.03;;;17.03;;
8540;SDS011;4308;51.294;6.590;2024-01-06T14:09:22;47.63;;;22.23;;
8540;SDS011;4308;51.294;6.590;2024-01-06T14:11:49;36.00;;;16.53;;
8540;SDS011;4308;51.294;6.590;2024-01-06T14:14:17;40.87;;;19.83;;
8540;SDS011;4308;51.294;6.590;2024-01-06T14:16:45;43.93;;;20.23;;
8540;SDS011;4308;51.294;6.590;2024-01-06T14:19:12;40.57;;;21.20;;
8540;SDS011;4308;51.294;6.590;2024-01-06T14:21:40;29.23;;;13.27;;
8540;SDS011;4308;51.294;6.590;2024-01-06T14:24:08;32.50;;;15.07;;
8540;SDS011;4308;51.294;6.590;2024-01-06T14:26:36;29.97;;;12.97;;
8540;SDS011;4308;51.294;6.590;2024-01-06T14:29:03;38.47;;;19.50;;
8540;SDS011;4308;51.294;6.590;2024-01-06T14:31:31;33.67;;;17.00;;
8540;SDS011;4308;51.294;6.590;2024-01-06T14:33:59;29.53;;;14.57;;
8540;SDS011;4308;51.294;6.590;2024-01-06T14:36:27;27.10;;;14.77;;
8540;SDS011;4308;51.294;6.590;2024-01-06T14:38:55;29.80;;;17.20;;
8540;SDS011;4308;51.294;6.590;2024-01-06T14:41:22;28.70;;;16.37;;
8540;SDS011;4308;51.294;6.590;2024-01-06T14:43:50;31.17;;;17.87;;
8540;SDS011;4308;51.294;6.590;2024-01-06T14:46:18;30.37;;;17.60;;
8540;SDS011;4308;51.294;6.590;2024-01-06T14:48:45;31.47;;;17.37;;
8540;SDS011;4308;51.294;6.590;2024-01-06T14:51:13;26.47;;;14.77;;
8540;SDS011;4308;51.294;6.590;2024-01-06T14:53:42;24.07;;;14.77;;
8540;SDS011;4308;51.294;6.590;2024-01-06T14:56:09;30.57;;;16.37;;